sensor_id;sensor_type;location;lat;lon;timestamp;pressure;altitude;pressure_sealevel;temperature;humidity
13661;BME280;6903;49.480;11.102;2023-05-10T00:01:49;97163.09;;;15.20;100.00
13661;BME280;6903;49.480;11.102;2023-05-10T00:04:15;97165.94;;;15.03;100.00
13661;BME280;6903;49.480;11.102;2023-05-10T00:06:41;97163.63;;;14.76;100.00
13661;BME280;6903;49.480;11.102;2023-05-10T00:09:06;97161.16;;;14.50;100.00
13661;BME280;6903;49.480;11.102;2023-05-10T00:11:31;97161.31;;;14.33;100.00
13661;BME280;6903;49.480;11.102;2023-05-10T00:13:56;97159.63;;;14.23;100.00
13661;BME280;6903;49.480;11.102;2023-05-10T00:16:22;97157.13;;;14.14;100.00
13661;BME280;6903;49.480;11.102;2023-05-10T00:18:47;97150.81;;;14.15;100.00
13661;BME280;6903;49.480;11.102;2023-05-10T00:21:12;97152.28;;;14.09;100.00
13661;BME280;6903;49.480;11.102;2023-05-10T00:23:38;97153.78;;;14.04;100.00
13661;BME280;6903;49.480;11.102;2023-05-10T00:26:03;97153.09;;;13.94;100.00
13661;BME280;6903;49.480;11.102;2023-05-10T00:28:29;97157.25;;;13.88;100.00
13661;BME280;6903;49.480;11.102;2023-05-10T00:30:54;97157.03;;;13.82;100.00
13661;BME280;6903;49.480;11.102;2023-05-10T00:33:20;97155.69;;;13.78;100.00
13661;BME280;6903;49.480;11.102;2023-05-10T00:35:46;97150.91;;;13.81;100.00
13661;BME280;6903;49.480;11.102;2023-05-10T00:38:11;97151.94;;;13.88;100.00
13661;BME280;6903;49.480;11.102;2023-05-10T00:40:36;97154.44;;;13.90;100.00
13661;BME280;6903;49.480;11.102;2023-05-10T00:43:02;97160.72;;;13.97;100.00
13661;BME280;6903;49.480;11.102;2023-05-10T00:45:29;97159.59;;;13.99;100.00
13661;BME280;6903;49.480;11.102;2023-05-10T00:47:55;97152.41;;;13.92;100.00
13661;BME280;6903;49.480;11.102;2023-05-10T00:50:22;97156.91;;;13.91;100.00
13661;BME280;6903;49.480;11.102;2023-05-10T00:52:47;97161.88;;;13.94;100.00
13661;BME280;6903;49.480;11.102;2023-05-10T00:55:13;97161.88;;;13.94;100.00
13661;BME280;6903;49.480;11.102;2023-05-10T00:57:38;97165.53;;;14.01;100.00
13661;BME280;6903;49.480;11.102;2023-05-10T01:00:05;97169.69;;;14.04;100.00
13661;BME280;6903;49.480;11.102;2023-05-10T01:02:30;97164.41;;;14.12;100.00
13661;BME280;6903;49.480;11.102;2023-05-10T01:04:55;97169.38;;;14.15;100.00
13661;BME280;6903;49.480;11.102;2023-05-10T01:07:21;97173.03;;;14.22;100.00
13661;BME280;6903;49.480;11.102;2023-05-10T01:09:46;97173.44;;;14.27;100.00
13661;BME280;6903;49.480;11.102;2023-05-10T01:12:12;97181.03;;;14.30;100.00
13661;BME280;6903;49.480;11.102;2023-05-10T01:14:37;97170.44;;;14.30;100.00
13661;BME280;6903;49.480;11.102;2023-05-10T01:17:04;97182.53;;;14.33;100.00
13661;BME280;6903;49.480;11.102;2023-05-10T01:19:31;97174.91;;;14.38;100.00
13661;BME280;6903;49.480;11.102;2023-05-10T01:22:37;97180.88;;;14.40;100.00
13661;BME280;6903;49.480;11.102;2023-05-10T01:28:08;97182.03;;;14.45;100.00
13661;BME280;6903;49.480;11.102;2023-05-10T01:31:18;97172.94;;;14.40;100.00
13661;BME280;6903;49.480;11.102;2023-05-10T01:34:02;97173.56;;;14.42;100.00
13661;BME280;6903;49.480;11.102;2023-05-10T01:36:48;97175.25;;;14.51;100.00
13661;BME280;6903;49.480;11.102;2023-05-10T01:39:23;97184.88;;;14.60;100.00
13661;BME280;6903;49.480;11.102;2023-05-10T01:41:54;97178.94;;;14.58;100.00
13661;BME280;6903;49.480;11.102;2023-05-10T01:44:32;97186.53;;;14.61;100.00
13661;BME280;6903;49.480;11.102;2023-05-10T01:47:28;97177.25;;;14.65;100.00
13661;BME280;6903;49.480;11.102;2023-05-10T01:49:57;97183.06;;;14.52;100.00
13661;BME280;6903;49.480;11.102;2023-05-10T01:52:31;97183.22;;;14.67;100.00
13661;BME280;6903;49.480;11.102;2023-05-10T01:55:02;97179.56;;;14.68;100.00
13661;BME280;6903;49.480;11.102;2023-05-10T01:57:33;97182.03;;;14.53;100.00
13661;BME280;6903;49.480;11.102;2023-05-10T02:00:01;97189.03;;;14.46;100.00
13661;BME280;6903;49.480;11.102;2023-05-10T02:02:29;97193.31;;;14.47;100.00
13661;BME280;6903;49.480;11.102;2023-05-10T02:04:58;97195.81;;;14.41;100.00
13661;BME280;6903;49.480;11.102;2023-05-10T02:07:24;97187.69;;;14.42;100.00
13661;BME280;6903;49.480;11.102;2023-05-10T02:09:51;97192.16;;;14.42;100.00
13661;BME280;6903;49.480;11.102;2023-05-10T02:12:17;97200.78;;;14.44;100.00
13661;BME280;6903;49.480;11.102;2023-05-10T02:14:44;97198.28;;;14.50;100.00
13661;BME280;6903;49.480;11.102;2023-05-10T02:17:11;97195.97;;;14.47;100.00
13661;BME280;6903;49.480;11.102;2023-05-10T02:19:40;97195.31;;;14.45;100.00
13661;BME280;6903;49.480;11.102;2023-05-10T02:22:07;97190.84;;;14.46;100.00
13661;BME280;6903;49.480;11.102;2023-05-10T02:24:34;97198.47;;;14.49;100.00
13661;BME280;6903;49.480;11.102;2023-05-10T02:27:02;97198.31;;;14.74;100.00
13661;BME280;6903;49.480;11.102;2023-05-10T02:29:29;97194.19;;;14.80;100.00
13661;BME280;6903;49.480;11.102;2023-05-10T02:31:55;97192.84;;;14.76;100.00
13661;BME280;6903;49.480;11.102;2023-05-10T02:34:23;97192.66;;;14.77;100.00
13661;BME280;6903;49.480;11.102;2023-05-10T02:36:50;97192.66;;;14.77;100.00
13661;BME280;6903;49.480;11.102;2023-05-10T02:39:19;97186.72;;;14.83;100.00
13661;BME280;6903;49.480;11.102;2023-05-10T02:41:46;97191.19;;;14.75;100.00
13661;BME280;6903;49.480;11.102;2023-05-10T02:44:14;97187.19;;;14.79;100.00
13661;BME280;6903;49.480;11.102;2023-05-10T02:46:40;97196.31;;;14.76;100.00
13661;BME280;6903;49.480;11.102;2023-05-10T02:49:05;97189.53;;;14.66;100.00
13661;BME280;6903;49.480;11.102;2023-05-10T02:51:32;97197.81;;;14.63;100.00
13661;BME280;6903;49.480;11.102;2023-05-10T02:54:12;97194.50;;;14.61;100.00
13661;BME280;6903;49.480;11.102;2023-05-10T02:56:49;97194.34;;;14.70;100.00
13661;BME280;6903;49.480;11.102;2023-05-10T02:59:15;97190.19;;;14.76;100.00
13661;BME280;6903;49.480;11.102;2023-05-10T03:01:41;97191.03;;;14.76;100.00
13661;BME280;6903;49.480;11.102;2023-05-10T03:04:06;97195.47;;;14.76;100.00
13661;BME280;6903;49.480;11.102;2023-05-10T03:06:32;97195.16;;;14.71;100.00
13661;BME280;6903;49.480;11.102;2023-05-10T03:08:58;97198.63;;;14.71;100.00
13661;BME280;6903;49.480;11.102;2023-05-10T03:11:43;97203.94;;;14.71;100.00
13661;BME280;6903;49.480;11.102;2023-05-10T03:17:23;97200.63;;;14.53;100.00
13661;BME280;6903;49.480;11.102;2023-05-10T03:19:57;97200.94;;;14.50;100.00
13661;BME280;6903;49.480;11.102;2023-05-10T03:22:37;97194.16;;;14.48;100.00
13661;BME280;6903;49.480;11.102;2023-05-10T03:25:07;97207.91;;;14.43;100.00
13661;BME280;6903;49.480;11.102;2023-05-10T03:27:36;97214.03;;;14.44;100.00
13661;BME280;6903;49.480;11.102;2023-05-10T03:30:05;97208.91;;;14.42;100.00
13661;BME280;6903;49.480;11.102;2023-05-10T03:32:31;97212.56;;;14.41;100.00
13661;BME280;6903;49.480;11.102;2023-05-10T03:34:59;97207.59;;;14.38;100.00
13661;BME280;6903;49.480;11.102;2023-05-10T03:37:24;97212.72;;;14.40;100.00
13661;BME280;6903;49.480;11.102;2023-05-10T03:39:49;97218.19;;;14.46;100.00
13661;BME280;6903;49.480;11.102;2023-05-10T03:42:15;97213.06;;;14.45;100.00
13661;BME280;6903;49.480;11.102;2023-05-10T03:44:42;97215.03;;;14.43;100.00
13661;BME280;6903;49.480;11.102;2023-05-10T03:47:08;97216.50;;;14.37;100.00
13661;BME280;6903;49.480;11.102;2023-05-10T03:49:33;97221.00;;;14.37;100.00
13661;BME280;6903;49.480;11.102;2023-05-10T03:51:58;97220.16;;;14.36;100.00
13661;BME280;6903;49.480;11.102;2023-05-10T03:54:24;97223.97;;;14.34;100.00
13661;BME280;6903;49.480;11.102;2023-05-10T03:56:49;97231.91;;;14.34;100.00
13661;BME280;6903;49.480;11.102;2023-05-10T03:59:14;97234.88;;;14.31;100.00
13661;BME280;6903;49.480;11.102;2023-05-10T04:01:40;97240.34;;;14.29;100.00
13661;BME280;6903;49.480;11.102;2023-05-10T04:04:05;97236.91;;;14.29;100.00
13661;BME280;6903;49.480;11.102;2023-05-10T04:06:30;97249.31;;;14.28;100.00
13661;BME280;6903;49.480;11.102;2023-05-10T04:08:56;97243.34;;;14.26;100.00
13661;BME280;6903;49.480;11.102;2023-05-10T04:11:24;97243.34;;;14.26;100.00
13661;BME280;6903;49.480;11.102;2023-05-10T04:13:50;97248.47;;;14.28;100.00
13661;BME280;6903;49.480;11.102;2023-05-10T04:16:15;97253.78;;;14.28;100.00
13661;BME280;6903;49.480;11.102;2023-05-10T04:18:40;97250.47;;;14.26;100.00
13661;BME280;6903;49.480;11.102;2023-05-10T04:21:14;97257.59;;;14.25;100.00
13661;BME280;6903;49.480;11.102;2023-05-10T04:23:39;97259.75;;;14.30;100.00
13661;BME280;6903;49.480;11.102;2023-05-10T04:26:05;97255.13;;;14.32;100.00
13661;BME280;6903;49.480;11.102;2023-05-10T04:28:30;97258.28;;;14.27;100.00
13661;BME280;6903;49.480;11.102;2023-05-10T04:31:06;97262.41;;;14.30;100.00
13661;BME280;6903;49.480;11.102;2023-05-10T04:33:32;97258.91;;;14.29;100.00
13661;BME280;6903;49.480;11.102;2023-05-10T04:35:58;97262.25;;;14.31;100.00
13661;BME280;6903;49.480;11.102;2023-05-10T04:38:24;97262.41;;;14.30;100.00
13661;BME280;6903;49.480;11.102;2023-05-10T04:40:49;97264.91;;;14.31;100.00
13661;BME280;6903;49.480;11.102;2023-05-10T04:43:15;97267.75;;;14.38;100.00
13661;BME280;6903;49.480;11.102;2023-05-10T04:45:40;97271.69;;;14.34;100.00
13661;BME280;6903;49.480;11.102;2023-05-10T04:48:05;97275.34;;;14.33;100.00
13661;BME280;6903;49.480;11.102;2023-05-10T04:50:31;97276.34;;;14.32;100.00
13661;BME280;6903;49.480;11.102;2023-05-10T04:52:56;97282.78;;;14.29;100.00
13661;BME280;6903;49.480;11.102;2023-05-10T04:55:22;97289.09;;;14.28;100.00
13661;BME280;6903;49.480;11.102;2023-05-10T04:57:47;97294.41;;;14.28;100.00
13661;BME280;6903;49.480;11.102;2023-05-10T05:00:13;97288.09;;;14.29;100.00
13661;BME280;6903;49.480;11.102;2023-05-10T05:02:42;97292.59;;;14.29;100.00
13661;BME280;6903;49.480;11.102;2023-05-10T05:05:08;97292.91;;;14.34;100.00
13661;BME280;6903;49.480;11.102;2023-05-10T05:07:33;97302.06;;;14.39;100.00
13661;BME280;6903;49.480;11.102;2023-05-10T05:09:58;97307.38;;;14.47;100.00
13661;BME280;6903;49.480;11.102;2023-05-10T05:12:24;97307.06;;;14.50;100.00
13661;BME280;6903;49.480;11.102;2023-05-10T05:14:49;97313.56;;;14.56;100.00
13661;BME280;6903;49.480;11.102;2023-05-10T05:17:14;97315.03;;;14.58;100.00
13661;BME280;6903;49.480;11.102;2023-05-10T05:19:40;97313.91;;;14.61;100.00
13661;BME280;6903;49.480;11.102;2023-05-10T05:22:06;97320.69;;;14.63;100.00
13661;BME280;6903;49.480;11.102;2023-05-10T05:24:35;97321.03;;;14.68;100.00
13661;BME280;6903;49.480;11.102;2023-05-10T05:27:04;97317.88;;;14.73;100.00
13661;BME280;6903;49.480;11.102;2023-05-10T05:29:29;97318.72;;;14.73;100.00
13661;BME280;6903;49.480;11.102;2023-05-10T05:31:54;97318.41;;;14.76;100.00
13661;BME280;6903;49.480;11.102;2023-05-10T05:34:20;97322.25;;;14.82;100.00
13661;BME280;6903;49.480;11.102;2023-05-10T05:36:46;97320.75;;;14.87;100.00
13661;BME280;6903;49.480;11.102;2023-05-10T05:39:11;97324.91;;;14.90;100.00
13661;BME280;6903;49.480;11.102;2023-05-10T05:41:37;97324.56;;;14.85;100.00
13661;BME280;6903;49.480;11.102;2023-05-10T05:44:02;97317.09;;;14.88;100.00
13661;BME280;6903;49.480;11.102;2023-05-10T05:46:27;97326.91;;;14.96;100.00
13661;BME280;6903;49.480;11.102;2023-05-10T05:48:53;97321.94;;;15.09;100.00
13661;BME280;6903;49.480;11.102;2023-05-10T05:51:18;97327.25;;;15.17;100.00
13661;BME280;6903;49.480;11.102;2023-05-10T05:53:43;97333.06;;;15.28;100.00
13661;BME280;6903;49.480;11.102;2023-05-10T05:56:09;97328.41;;;15.30;100.00
13661;BME280;6903;49.480;11.102;2023-05-10T05:58:34;97333.06;;;15.28;100.00
13661;BME280;6903;49.480;11.102;2023-05-10T06:01:00;97332.22;;;15.36;100.00
13661;BME280;6903;49.480;11.102;2023-05-10T06:03:25;97339.72;;;15.40;100.00
13661;BME280;6903;49.480;11.102;2023-05-10T06:05:50;97346.38;;;15.44;100.00
13661;BME280;6903;49.480;11.102;2023-05-10T06:08:16;97356.34;;;15.50;100.00
13661;BME280;6903;49.480;11.102;2023-05-10T06:10:41;97353.00;;;15.56;100.00
13661;BME280;6903;49.480;11.102;2023-05-10T06:13:06;97346.53;;;15.67;100.00
13661;BME280;6903;49.480;11.102;2023-05-10T06:15:31;97353.31;;;15.78;100.00
13661;BME280;6903;49.480;11.102;2023-05-10T06:17:57;97349.16;;;15.91;100.00
13661;BME280;6903;49.480;11.102;2023-05-10T06:20:23;97351.28;;;16.04;100.00
13661;BME280;6903;49.480;11.102;2023-05-10T06:22:48;97360.06;;;16.12;100.00
13661;BME280;6903;49.480;11.102;2023-05-10T06:25:13;97361.69;;;16.21;100.00
13661;BME280;6903;49.480;11.102;2023-05-10T06:27:39;97358.69;;;16.24;100.00
13661;BME280;6903;49.480;11.102;2023-05-10T06:30:05;97362.97;;;16.33;100.00
13661;BME280;6903;49.480;11.102;2023-05-10T06:32:31;97371.09;;;16.48;100.00
13661;BME280;6903;49.480;11.102;2023-05-10T06:34:57;97363.75;;;16.58;100.00
13661;BME280;6903;49.480;11.102;2023-05-10T06:37:23;97367.69;;;16.70;100.00
13661;BME280;6903;49.480;11.102;2023-05-10T06:39:48;97359.00;;;16.76;100.00
13661;BME280;6903;49.480;11.102;2023-05-10T06:42:13;97357.44;;;16.89;100.00
13661;BME280;6903;49.480;11.102;2023-05-10T06:44:39;97359.38;;;16.95;100.00
13661;BME280;6903;49.480;11.102;2023-05-10T06:47:04;97360.19;;;17.04;100.00
13661;BME280;6903;49.480;11.102;2023-05-10T06:49:29;97371.06;;;17.17;100.00
13661;BME280;6903;49.480;11.102;2023-05-10T06:51:55;97366.50;;;17.26;100.00
13661;BME280;6903;49.480;11.102;2023-05-10T06:54:21;97361.78;;;17.36;100.00
13661;BME280;6903;49.480;11.102;2023-05-10T06:56:46;97361.72;;;17.44;100.00
13661;BME280;6903;49.480;11.102;2023-05-10T06:59:12;97363.25;;;17.61;100.00
13661;BME280;6903;49.480;11.102;2023-05-10T07:01:38;97359.34;;;17.71;100.00
13661;BME280;6903;49.480;11.102;2023-05-10T07:04:04;97364.44;;;17.81;100.00
13661;BME280;6903;49.480;11.102;2023-05-10T07:06:29;97364.44;;;17.95;100.00
13661;BME280;6903;49.480;11.102;2023-05-10T07:08:54;97361.91;;;18.16;100.00
13661;BME280;6903;49.480;11.102;2023-05-10T07:11:19;97366.41;;;18.30;100.00
13661;BME280;6903;49.480;11.102;2023-05-10T07:13:45;97360.34;;;18.51;100.00
13661;BME280;6903;49.480;11.102;2023-05-10T07:16:11;97369.91;;;18.75;100.00
13661;BME280;6903;49.480;11.102;2023-05-10T07:18:37;97365.91;;;18.85;100.00
13661;BME280;6903;49.480;11.102;2023-05-10T07:21:02;97369.59;;;18.99;100.00
13661;BME280;6903;49.480;11.102;2023-05-10T07:23:28;97369.63;;;19.20;100.00
13661;BME280;6903;49.480;11.102;2023-05-10T07:25:53;97368.38;;;19.37;100.00
13661;BME280;6903;49.480;11.102;2023-05-10T07:28:18;97372.69;;;19.38;100.00
13661;BME280;6903;49.480;11.102;2023-05-10T07:30:44;97384.41;;;19.37;100.00
13661;BME280;6903;49.480;11.102;2023-05-10T07:33:10;97383.66;;;19.43;100.00
13661;BME280;6903;49.480;11.102;2023-05-10T07:35:36;97386.31;;;19.43;100.00
13661;BME280;6903;49.480;11.102;2023-05-10T07:38:02;97386.84;;;19.53;100.00
13661;BME280;6903;49.480;11.102;2023-05-10T07:40:28;97383.06;;;19.68;100.00
13661;BME280;6903;49.480;11.102;2023-05-10T07:42:53;97382.88;;;19.70;100.00
13661;BME280;6903;49.480;11.102;2023-05-10T07:45:19;97390.53;;;19.73;100.00
13661;BME280;6903;49.480;11.102;2023-05-10T07:47:44;97387.84;;;19.73;100.00
13661;BME280;6903;49.480;11.102;2023-05-10T07:50:10;97389.69;;;19.73;100.00
13661;BME280;6903;49.480;11.102;2023-05-10T07:52:35;97394.78;;;19.46;100.00
13661;BME280;6903;49.480;11.102;2023-05-10T07:55:00;97394.66;;;19.19;100.00
13661;BME280;6903;49.480;11.102;2023-05-10T07:57:26;97386.75;;;19.11;100.00
13661;BME280;6903;49.480;11.102;2023-05-10T07:59:51;97392.31;;;19.09;100.00
13661;BME280;6903;49.480;11.102;2023-05-10T08:02:16;97386.38;;;19.14;100.00
13661;BME280;6903;49.480;11.102;2023-05-10T08:04:41;97398.06;;;19.27;100.00
13661;BME280;6903;49.480;11.102;2023-05-10T08:07:07;97393.66;;;19.34;100.00
13661;BME280;6903;49.480;11.102;2023-05-10T08:09:32;97398.56;;;19.31;100.00
13661;BME280;6903;49.480;11.102;2023-05-10T08:11:58;97397.06;;;19.14;100.00
13661;BME280;6903;49.480;11.102;2023-05-10T08:14:25;97401.16;;;19.10;100.00
13661;BME280;6903;49.480;11.102;2023-05-10T08:16:50;97402.00;;;19.10;100.00
13661;BME280;6903;49.480;11.102;2023-05-10T08:19:15;97407.72;;;18.93;100.00
13661;BME280;6903;49.480;11.102;2023-05-10T08:21:44;97406.63;;;18.87;100.00
13661;BME280;6903;49.480;11.102;2023-05-10T08:24:09;97395.84;;;18.95;100.00
13661;BME280;6903;49.480;11.102;2023-05-10T08:26:35;97411.38;;;19.06;100.00
13661;BME280;6903;49.480;11.102;2023-05-10T08:29:00;97406.00;;;19.21;100.00
13661;BME280;6903;49.480;11.102;2023-05-10T08:31:25;97412.56;;;19.33;100.00
13661;BME280;6903;49.480;11.102;2023-05-10T08:33:51;97412.34;;;19.55;100.00
13661;BME280;6903;49.480;11.102;2023-05-10T08:36:17;97417.38;;;19.86;100.00
13661;BME280;6903;49.480;11.102;2023-05-10T08:38:47;97420.66;;;20.09;100.00
13661;BME280;6903;49.480;11.102;2023-05-10T08:41:13;97415.53;;;20.35;100.00
13661;BME280;6903;49.480;11.102;2023-05-10T08:43:38;97420.75;;;20.77;100.00
13661;BME280;6903;49.480;11.102;2023-05-10T08:46:04;97421.72;;;21.04;100.00
13661;BME280;6903;49.480;11.102;2023-05-10T08:48:31;97416.47;;;21.30;100.00
13661;BME280;6903;49.480;11.102;2023-05-10T08:51:00;97421.06;;;21.56;100.00
13661;BME280;6903;49.480;11.102;2023-05-10T08:53:26;97412.69;;;21.91;100.00
13661;BME280;6903;49.480;11.102;2023-05-10T08:55:52;97420.94;;;21.90;100.00
13661;BME280;6903;49.480;11.102;2023-05-10T08:58:19;97418.28;;;22.09;100.00
13661;BME280;6903;49.480;11.102;2023-05-10T09:00:45;97412.28;;;22.53;100.00
13661;BME280;6903;49.480;11.102;2023-05-10T09:03:10;97416.56;;;22.74;100.00
13661;BME280;6903;49.480;11.102;2023-05-10T09:05:36;97418.00;;;22.70;100.00
13661;BME280;6903;49.480;11.102;2023-05-10T09:08:01;97418.03;;;22.63;100.00
13661;BME280;6903;49.480;11.102;2023-05-10T09:10:27;97421.09;;;22.80;100.00
13661;BME280;6903;49.480;11.102;2023-05-10T09:12:56;97423.53;;;22.88;100.00
13661;BME280;6903;49.480;11.102;2023-05-10T09:15:22;97433.75;;;22.66;100.00
13661;BME280;6903;49.480;11.102;2023-05-10T09:17:49;97431.84;;;21.75;100.00
13661;BME280;6903;49.480;11.102;2023-05-10T09:20:14;97424.63;;;21.09;100.00
13661;BME280;6903;49.480;11.102;2023-05-10T09:22:40;97432.84;;;20.33;100.00
13661;BME280;6903;49.480;11.102;2023-05-10T09:25:06;97441.84;;;19.62;100.00
13661;BME280;6903;49.480;11.102;2023-05-10T09:27:33;97437.72;;;19.24;100.00
13661;BME280;6903;49.480;11.102;2023-05-10T09:29:58;97442.22;;;18.73;100.00
13661;BME280;6903;49.480;11.102;2023-05-10T09:32:37;97446.75;;;18.35;100.00
13661;BME280;6903;49.480;11.102;2023-05-10T09:35:14;97448.50;;;17.91;100.00
13661;BME280;6903;49.480;11.102;2023-05-10T09:37:40;97459.06;;;17.62;100.00
13661;BME280;6903;49.480;11.102;2023-05-10T09:40:08;97453.53;;;17.64;100.00
13661;BME280;6903;49.480;11.102;2023-05-10T09:42:36;97453.53;;;17.64;100.00
13661;BME280;6903;49.480;11.102;2023-05-10T09:45:05;97455.16;;;17.73;100.00
13661;BME280;6903;49.480;11.102;2023-05-10T09:47:32;97450.44;;;17.83;100.00
13661;BME280;6903;49.480;11.102;2023-05-10T09:49:58;97452.66;;;17.94;100.00
13661;BME280;6903;49.480;11.102;2023-05-10T09:52:35;97450.09;;;18.00;100.00
13661;BME280;6903;49.480;11.102;2023-05-10T09:55:10;97454.94;;;18.19;100.00
13661;BME280;6903;49.480;11.102;2023-05-10T09:57:35;97452.66;;;18.31;100.00
13661;BME280;6903;49.480;11.102;2023-05-10T10:00:01;97453.31;;;18.48;100.00
13661;BME280;6903;49.480;11.102;2023-05-10T10:02:28;97445.31;;;18.62;100.00
13661;BME280;6903;49.480;11.102;2023-05-10T10:04:54;97455.19;;;18.76;100.00
13661;BME280;6903;49.480;11.102;2023-05-10T10:07:22;97445.03;;;19.01;100.00
13661;BME280;6903;49.480;11.102;2023-05-10T10:09:49;97446.56;;;19.24;100.00
13661;BME280;6903;49.480;11.102;2023-05-10T10:12:15;97446.69;;;19.52;100.00
13661;BME280;6903;49.480;11.102;2023-05-10T10:14:40;97434.00;;;19.82;100.00
13661;BME280;6903;49.480;11.102;2023-05-10T10:17:06;97435.03;;;20.02;100.00
13661;BME280;6903;49.480;11.102;2023-05-10T10:19:33;97437.19;;;20.13;100.00
13661;BME280;6903;49.480;11.102;2023-05-10T10:22:00;97433.50;;;20.41;100.00
13661;BME280;6903;49.480;11.102;2023-05-10T10:24:25;97429.97;;;20.68;100.00
13661;BME280;6903;49.480;11.102;2023-05-10T10:26:52;97429.16;;;21.02;100.00
13661;BME280;6903;49.480;11.102;2023-05-10T10:29:26;97425.97;;;21.33;100.00
13661;BME280;6903;49.480;11.102;2023-05-10T10:34:45;97417.03;;;21.13;100.00
13661;BME280;6903;49.480;11.102;2023-05-10T10:37:11;97421.03;;;21.43;100.00
13661;BME280;6903;49.480;11.102;2023-05-10T10:39:36;97413.31;;;22.06;100.00
13661;BME280;6903;49.480;11.102;2023-05-10T10:42:04;97413.25;;;22.45;100.00
13661;BME280;6903;49.480;11.102;2023-05-10T10:49:25;97414.72;;;22.48;100.00
13661;BME280;6903;49.480;11.102;2023-05-10T11:00:19;97415.38;;;22.11;100.00
13661;BME280;6903;49.480;11.102;2023-05-10T11:08:11;97416.16;;;21.72;100.00
13661;BME280;6903;49.480;11.102;2023-05-10T11:10:37;97414.88;;;21.62;100.00
13661;BME280;6903;49.480;11.102;2023-05-10T11:13:06;97420.41;;;21.47;100.00
13661;BME280;6903;49.480;11.102;2023-05-10T11:15:33;97423.72;;;21.49;100.00
13661;BME280;6903;49.480;11.102;2023-05-10T11:17:59;97418.81;;;21.59;100.00
13661;BME280;6903;49.480;11.102;2023-05-10T11:20:29;97420.47;;;21.73;100.00
13661;BME280;6903;49.480;11.102;2023-05-10T11:23:13;97416.63;;;21.82;100.00
13661;BME280;6903;49.480;11.102;2023-05-10T11:25:45;97417.63;;;21.88;100.00
13661;BME280;6903;49.480;11.102;2023-05-10T11:28:14;97423.22;;;21.86;100.00
13661;BME280;6903;49.480;11.102;2023-05-10T11:30:41;97429.34;;;21.74;100.00
13661;BME280;6903;49.480;11.102;2023-05-10T11:33:07;97430.59;;;21.65;100.00
13661;BME280;6903;49.480;11.102;2023-05-10T11:35:40;97422.56;;;21.71;100.00
13661;BME280;6903;49.480;11.102;2023-05-10T11:38:10;97427.72;;;21.66;100.00
13661;BME280;6903;49.480;11.102;2023-05-10T11:40:36;97427.75;;;21.79;100.00
13661;BME280;6903;49.480;11.102;2023-05-10T11:43:02;97429.56;;;21.72;100.00
13661;BME280;6903;49.480;11.102;2023-05-10T11:45:28;97429.34;;;21.74;100.00
13661;BME280;6903;49.480;11.102;2023-05-10T11:47:55;97440.09;;;21.74;100.00
13661;BME280;6903;49.480;11.102;2023-05-10T11:50:22;97434.72;;;21.74;100.00
13661;BME280;6903;49.480;11.102;2023-05-10T11:52:51;97432.66;;;21.69;100.00
13661;BME280;6903;49.480;11.102;2023-05-10T11:55:17;97440.28;;;21.59;99.91
13661;BME280;6903;49.480;11.102;2023-05-10T11:57:42;97444.38;;;21.62;99.95
13661;BME280;6903;49.480;11.102;2023-05-10T12:00:10;97435.63;;;21.87;98.69
13661;BME280;6903;49.480;11.102;2023-05-10T12:02:36;97436.03;;;22.23;97.53
13661;BME280;6903;49.480;11.102;2023-05-10T12:05:02;97436.22;;;22.48;95.48
13661;BME280;6903;49.480;11.102;2023-05-10T12:07:28;97446.13;;;22.67;94.30
13661;BME280;6903;49.480;11.102;2023-05-10T12:10:24;97443.63;;;22.85;94.31
13661;BME280;6903;49.480;11.102;2023-05-10T12:12:52;97437.81;;;22.88;93.73
13661;BME280;6903;49.480;11.102;2023-05-10T12:15:22;97441.13;;;22.97;93.45
13661;BME280;6903;49.480;11.102;2023-05-10T12:17:48;97441.91;;;23.04;93.01
13661;BME280;6903;49.480;11.102;2023-05-10T12:20:21;97447.03;;;23.12;92.42
13661;BME280;6903;49.480;11.102;2023-05-10T12:22:51;97431.72;;;23.12;92.23
13661;BME280;6903;49.480;11.102;2023-05-10T12:25:18;97435.81;;;23.21;92.43
13661;BME280;6903;49.480;11.102;2023-05-10T12:27:54;97438.94;;;23.18;93.28
13661;BME280;6903;49.480;11.102;2023-05-10T12:30:31;97438.53;;;23.15;92.23
13661;BME280;6903;49.480;11.102;2023-05-10T12:33:01;97439.34;;;23.22;91.24
13661;BME280;6903;49.480;11.102;2023-05-10T12:35:30;97433.97;;;23.22;90.69
13661;BME280;6903;49.480;11.102;2023-05-10T12:37:55;97443.88;;;23.34;90.06
13661;BME280;6903;49.480;11.102;2023-05-10T12:40:21;97437.25;;;23.37;87.54
13661;BME280;6903;49.480;11.102;2023-05-10T12:42:46;97440.81;;;23.24;87.27
13661;BME280;6903;49.480;11.102;2023-05-10T12:45:12;97441.00;;;23.29;87.80
13661;BME280;6903;49.480;11.102;2023-05-10T12:47:37;97441.91;;;23.54;86.62
13661;BME280;6903;49.480;11.102;2023-05-10T12:50:04;97440.00;;;23.61;84.39
13661;BME280;6903;49.480;11.102;2023-05-10T12:52:30;97432.13;;;23.60;84.31
13661;BME280;6903;49.480;11.102;2023-05-10T12:54:57;97436.69;;;23.66;84.76
13661;BME280;6903;49.480;11.102;2023-05-10T12:57:23;97437.31;;;23.61;83.47
13661;BME280;6903;49.480;11.102;2023-05-10T12:59:48;97438.03;;;23.82;82.79
13661;BME280;6903;49.480;11.102;2023-05-10T13:02:13;97436.81;;;23.77;82.47
13661;BME280;6903;49.480;11.102;2023-05-10T13:04:40;97441.16;;;23.78;82.30
13661;BME280;6903;49.480;11.102;2023-05-10T13:07:09;97438.03;;;23.82;82.05
13661;BME280;6903;49.480;11.102;2023-05-10T13:09:34;97446.84;;;23.95;81.15
13661;BME280;6903;49.480;11.102;2023-05-10T13:11:59;97438.91;;;24.07;80.43
13661;BME280;6903;49.480;11.102;2023-05-10T13:14:25;97441.19;;;24.10;80.31
13661;BME280;6903;49.480;11.102;2023-05-10T13:16:51;97437.88;;;24.08;80.09
13661;BME280;6903;49.480;11.102;2023-05-10T13:19:16;97440.50;;;23.83;80.01